Terminal Aerodrome Forecast
Issued by NWS Albany, NY

Home | Current Version | Previous Version | Text Only | Print | Product List | Glossary On
Versions: 1 2 3 4 5 6 7 8 9 10 11 12 13 14
471
FTUS41 KALY 240524
TAFPOU
TAF
KPOU 240524Z 2406/2506 00000KT P6SM -RA VCSH FEW040 BKN060 OVC110
     FM240800 00000KT 3SM BR VCSH BKN025
     FM241400 19005KT P6SM SCT025 BKN100
     FM250300 VRB03KT 3SM BR OVC025=

USA.gov is the U.S. government's official web portal to all federal, state and local government web resources and services.